sensor_id;sensor_type;location;lat;lon;timestamp;temperature;humidity
47114;DHT22;32867;51.556;6.832;2023-04-15T00:02:18;11.70;76.40
47114;DHT22;32867;51.556;6.832;2023-04-15T00:07:19;11.60;77.20
47114;DHT22;32867;51.556;6.832;2023-04-15T00:12:20;11.60;77.10
47114;DHT22;32867;51.556;6.832;2023-04-15T00:17:21;11.60;77.30
47114;DHT22;32867;51.556;6.832;2023-04-15T00:22:22;11.60;77.20
47114;DHT22;32867;51.556;6.832;2023-04-15T00:27:22;11.60;77.50
47114;DHT22;32867;51.556;6.832;2023-04-15T00:32:23;11.60;77.80
47114;DHT22;32867;51.556;6.832;2023-04-15T00:37:24;11.50;78.20
47114;DHT22;32867;51.556;6.832;2023-04-15T00:42:25;11.40;78.60
47114;DHT22;32867;51.556;6.832;2023-04-15T00:47:28;11.30;79.10
47114;DHT22;32867;51.556;6.832;2023-04-15T00:52:30;11.20;79.60
47114;DHT22;32867;51.556;6.832;2023-04-15T00:57:31;11.10;80.60
47114;DHT22;32867;51.556;6.832;2023-04-15T01:02:33;11.10;80.70
47114;DHT22;32867;51.556;6.832;2023-04-15T01:07:35;11.00;80.80
47114;DHT22;32867;51.556;6.832;2023-04-15T01:12:36;11.00;80.40
47114;DHT22;32867;51.556;6.832;2023-04-15T01:17:38;11.00;81.20
47114;DHT22;32867;51.556;6.832;2023-04-15T01:22:40;10.90;81.10
47114;DHT22;32867;51.556;6.832;2023-04-15T01:27:42;10.80;82.00
47114;DHT22;32867;51.556;6.832;2023-04-15T01:32:43;10.70;82.10
47114;DHT22;32867;51.556;6.832;2023-04-15T01:37:45;10.70;82.40
47114;DHT22;32867;51.556;6.832;2023-04-15T01:42:46;10.60;82.80
47114;DHT22;32867;51.556;6.832;2023-04-15T01:47:49;10.60;83.40
47114;DHT22;32867;51.556;6.832;2023-04-15T01:52:49;10.50;83.40
47114;DHT22;32867;51.556;6.832;2023-04-15T01:57:52;10.50;83.60
47114;DHT22;32867;51.556;6.832;2023-04-15T02:02:52;10.40;84.00
47114;DHT22;32867;51.556;6.832;2023-04-15T02:07:53;10.30;84.80
47114;DHT22;32867;51.556;6.832;2023-04-15T02:12:53;10.30;84.80
47114;DHT22;32867;51.556;6.832;2023-04-15T02:17:54;10.30;85.50
47114;DHT22;32867;51.556;6.832;2023-04-15T02:22:55;10.30;85.60
47114;DHT22;32867;51.556;6.832;2023-04-15T02:27:56;10.30;85.80
47114;DHT22;32867;51.556;6.832;2023-04-15T02:32:57;10.20;86.50
47114;DHT22;32867;51.556;6.832;2023-04-15T02:37:59;10.10;86.80
47114;DHT22;32867;51.556;6.832;2023-04-15T02:43:00;10.00;87.50
47114;DHT22;32867;51.556;6.832;2023-04-15T02:48:02;10.00;88.00
47114;DHT22;32867;51.556;6.832;2023-04-15T02:53:05;9.90;88.30
47114;DHT22;32867;51.556;6.832;2023-04-15T02:58:06;9.90;88.40
47114;DHT22;32867;51.556;6.832;2023-04-15T03:03:07;9.80;89.10
47114;DHT22;32867;51.556;6.832;2023-04-15T03:08:08;9.60;90.50
47114;DHT22;32867;51.556;6.832;2023-04-15T03:13:09;9.50;91.20
47114;DHT22;32867;51.556;6.832;2023-04-15T03:18:10;9.50;91.40
47114;DHT22;32867;51.556;6.832;2023-04-15T03:23:10;9.40;92.00
47114;DHT22;32867;51.556;6.832;2023-04-15T03:28:11;9.30;92.70
47114;DHT22;32867;51.556;6.832;2023-04-15T03:33:12;9.40;92.70
47114;DHT22;32867;51.556;6.832;2023-04-15T03:38:13;9.30;93.00
47114;DHT22;32867;51.556;6.832;2023-04-15T03:43:13;9.20;93.70
47114;DHT22;32867;51.556;6.832;2023-04-15T03:48:14;9.20;94.00
47114;DHT22;32867;51.556;6.832;2023-04-15T03:53:15;9.20;93.90
47114;DHT22;32867;51.556;6.832;2023-04-15T03:58:15;9.10;95.90
47114;DHT22;32867;51.556;6.832;2023-04-15T04:03:16;9.00;96.60
47114;DHT22;32867;51.556;6.832;2023-04-15T04:08:17;9.00;96.50
47114;DHT22;32867;51.556;6.832;2023-04-15T04:13:18;9.00;96.80
47114;DHT22;32867;51.556;6.832;2023-04-15T04:18:19;8.90;98.20
47114;DHT22;32867;51.556;6.832;2023-04-15T04:23:20;9.00;98.20
47114;DHT22;32867;51.556;6.832;2023-04-15T04:28:21;8.90;99.20
47114;DHT22;32867;51.556;6.832;2023-04-15T04:33:21;8.80;99.90
47114;DHT22;32867;51.556;6.832;2023-04-15T04:38:22;8.90;99.50
47114;DHT22;32867;51.556;6.832;2023-04-15T04:43:23;8.80;99.70
47114;DHT22;32867;51.556;6.832;2023-04-15T04:48:23;8.80;99.80
47114;DHT22;32867;51.556;6.832;2023-04-15T04:53:24;8.70;99.90
47114;DHT22;32867;51.556;6.832;2023-04-15T04:58:25;8.70;99.90
47114;DHT22;32867;51.556;6.832;2023-04-15T05:03:26;8.80;99.90
47114;DHT22;32867;51.556;6.832;2023-04-15T05:08:26;8.80;99.90
47114;DHT22;32867;51.556;6.832;2023-04-15T05:13:27;8.80;99.90
47114;DHT22;32867;51.556;6.832;2023-04-15T05:18:28;8.90;99.90
47114;DHT22;32867;51.556;6.832;2023-04-15T05:23:28;9.00;99.90
47114;DHT22;32867;51.556;6.832;2023-04-15T05:28:29;9.10;99.90
47114;DHT22;32867;51.556;6.832;2023-04-15T05:33:30;8.90;99.90
47114;DHT22;32867;51.556;6.832;2023-04-15T05:38:31;9.00;99.90
47114;DHT22;32867;51.556;6.832;2023-04-15T05:43:31;8.90;99.90
47114;DHT22;32867;51.556;6.832;2023-04-15T05:48:32;8.90;99.90
47114;DHT22;32867;51.556;6.832;2023-04-15T05:53:33;9.00;99.90
47114;DHT22;32867;51.556;6.832;2023-04-15T05:58:33;9.10;99.90
47114;DHT22;32867;51.556;6.832;2023-04-15T06:03:34;9.10;99.90
47114;DHT22;32867;51.556;6.832;2023-04-15T06:08:35;9.10;99.90
47114;DHT22;32867;51.556;6.832;2023-04-15T06:13:35;9.30;99.90
47114;DHT22;32867;51.556;6.832;2023-04-15T06:18:36;9.50;99.90
47114;DHT22;32867;51.556;6.832;2023-04-15T06:23:37;9.50;99.90
47114;DHT22;32867;51.556;6.832;2023-04-15T06:28:40;9.70;99.90
47114;DHT22;32867;51.556;6.832;2023-04-15T06:33:41;9.90;99.90
47114;DHT22;32867;51.556;6.832;2023-04-15T06:38:41;10.10;99.90
47114;DHT22;32867;51.556;6.832;2023-04-15T06:43:42;10.30;99.90
47114;DHT22;32867;51.556;6.832;2023-04-15T06:48:42;10.70;99.90
47114;DHT22;32867;51.556;6.832;2023-04-15T06:53:43;10.90;99.90
47114;DHT22;32867;51.556;6.832;2023-04-15T06:58:44;11.10;99.90
47114;DHT22;32867;51.556;6.832;2023-04-15T07:03:45;11.20;99.90
47114;DHT22;32867;51.556;6.832;2023-04-15T07:08:46;11.30;99.90
47114;DHT22;32867;51.556;6.832;2023-04-15T07:13:46;11.50;99.90
47114;DHT22;32867;51.556;6.832;2023-04-15T07:18:47;11.70;99.90
47114;DHT22;32867;51.556;6.832;2023-04-15T07:23:48;11.60;99.90
47114;DHT22;32867;51.556;6.832;2023-04-15T07:28:48;11.80;99.90
47114;DHT22;32867;51.556;6.832;2023-04-15T07:33:49;12.00;99.90
47114;DHT22;32867;51.556;6.832;2023-04-15T07:38:50;12.20;99.90
47114;DHT22;32867;51.556;6.832;2023-04-15T07:43:50;12.30;98.50
47114;DHT22;32867;51.556;6.832;2023-04-15T07:48:52;12.30;98.60
47114;DHT22;32867;51.556;6.832;2023-04-15T07:53:52;12.40;98.20
47114;DHT22;32867;51.556;6.832;2023-04-15T07:58:54;12.50;97.50
47114;DHT22;32867;51.556;6.832;2023-04-15T08:03:55;12.50;97.20
47114;DHT22;32867;51.556;6.832;2023-04-15T08:08:56;12.60;96.80
47114;DHT22;32867;51.556;6.832;2023-04-15T08:13:57;12.50;96.40
47114;DHT22;32867;51.556;6.832;2023-04-15T08:18:57;12.80;96.30
47114;DHT22;32867;51.556;6.832;2023-04-15T08:23:58;13.00;94.70
47114;DHT22;32867;51.556;6.832;2023-04-15T08:28:59;13.30;94.00
47114;DHT22;32867;51.556;6.832;2023-04-15T08:34:00;13.50;93.60
47114;DHT22;32867;51.556;6.832;2023-04-15T08:39:01;13.80;92.90
47114;DHT22;32867;51.556;6.832;2023-04-15T08:44:04;13.90;92.70
47114;DHT22;32867;51.556;6.832;2023-04-15T08:49:10;14.00;91.90
47114;DHT22;32867;51.556;6.832;2023-04-15T08:54:12;13.80;91.50
47114;DHT22;32867;51.556;6.832;2023-04-15T08:59:13;13.80;91.80
47114;DHT22;32867;51.556;6.832;2023-04-15T09:04:14;14.00;91.80
47114;DHT22;32867;51.556;6.832;2023-04-15T09:09:16;14.30;91.20
47114;DHT22;32867;51.556;6.832;2023-04-15T09:14:16;14.40;90.90
47114;DHT22;32867;51.556;6.832;2023-04-15T09:19:22;14.20;91.00
47114;DHT22;32867;51.556;6.832;2023-04-15T09:24:23;14.40;91.30
47114;DHT22;32867;51.556;6.832;2023-04-15T09:29:24;14.80;91.00
47114;DHT22;32867;51.556;6.832;2023-04-15T09:34:35;14.80;90.40
47114;DHT22;32867;51.556;6.832;2023-04-15T09:39:50;14.80;90.30
47114;DHT22;32867;51.556;6.832;2023-04-15T09:44:51;14.90;90.10
47114;DHT22;32867;51.556;6.832;2023-04-15T09:49:56;14.70;90.60
47114;DHT22;32867;51.556;6.832;2023-04-15T09:54:58;14.80;90.80
47114;DHT22;32867;51.556;6.832;2023-04-15T09:59:59;14.60;90.90
47114;DHT22;32867;51.556;6.832;2023-04-15T10:05:01;14.60;90.80
47114;DHT22;32867;51.556;6.832;2023-04-15T10:10:02;14.60;90.80
47114;DHT22;32867;51.556;6.832;2023-04-15T10:15:05;14.30;91.30
47114;DHT22;32867;51.556;6.832;2023-04-15T10:20:07;14.10;91.60
47114;DHT22;32867;51.556;6.832;2023-04-15T10:25:09;14.10;91.80
47114;DHT22;32867;51.556;6.832;2023-04-15T10:30:11;14.20;91.60
47114;DHT22;32867;51.556;6.832;2023-04-15T10:35:12;14.30;91.50
47114;DHT22;32867;51.556;6.832;2023-04-15T10:40:28;14.20;91.40
47114;DHT22;32867;51.556;6.832;2023-04-15T10:45:31;14.30;91.50
47114;DHT22;32867;51.556;6.832;2023-04-15T10:50:32;14.70;90.90
47114;DHT22;32867;51.556;6.832;2023-04-15T10:55:33;14.90;90.70
47114;DHT22;32867;51.556;6.832;2023-04-15T11:00:36;14.80;90.60
47114;DHT22;32867;51.556;6.832;2023-04-15T11:10:50;14.50;90.50
47114;DHT22;32867;51.556;6.832;2023-04-15T11:15:55;14.70;90.60
47114;DHT22;32867;51.556;6.832;2023-04-15T11:20:59;14.70;90.50
47114;DHT22;32867;51.556;6.832;2023-04-15T11:26:02;14.70;90.60
47114;DHT22;32867;51.556;6.832;2023-04-15T11:36:06;15.70;89.40
47114;DHT22;32867;51.556;6.832;2023-04-15T11:41:07;16.60;87.00
47114;DHT22;32867;51.556;6.832;2023-04-15T11:46:08;16.40;85.80
47114;DHT22;32867;51.556;6.832;2023-04-15T11:51:11;16.20;85.50
47114;DHT22;32867;51.556;6.832;2023-04-15T11:56:20;15.80;85.20
47114;DHT22;32867;51.556;6.832;2023-04-15T12:01:35;15.50;86.80
47114;DHT22;32867;51.556;6.832;2023-04-15T12:06:36;15.60;85.30
47114;DHT22;32867;51.556;6.832;2023-04-15T12:11:50;15.30;86.00
47114;DHT22;32867;51.556;6.832;2023-04-15T12:16:56;15.30;86.50
47114;DHT22;32867;51.556;6.832;2023-04-15T12:21:59;15.30;86.10
47114;DHT22;32867;51.556;6.832;2023-04-15T12:27:02;14.70;87.50
47114;DHT22;32867;51.556;6.832;2023-04-15T12:32:09;14.50;88.50
47114;DHT22;32867;51.556;6.832;2023-04-15T12:37:11;14.20;89.20
47114;DHT22;32867;51.556;6.832;2023-04-15T12:42:16;14.30;89.10
47114;DHT22;32867;51.556;6.832;2023-04-15T12:47:17;14.50;90.10
47114;DHT22;32867;51.556;6.832;2023-04-15T12:52:17;14.40;89.80
47114;DHT22;32867;51.556;6.832;2023-04-15T12:57:18;14.30;90.00
47114;DHT22;32867;51.556;6.832;2023-04-15T13:02:19;14.10;90.40
47114;DHT22;32867;51.556;6.832;2023-04-15T13:07:20;14.00;90.60
47114;DHT22;32867;51.556;6.832;2023-04-15T13:12:21;14.00;90.90
47114;DHT22;32867;51.556;6.832;2023-04-15T13:17:21;13.90;91.10
47114;DHT22;32867;51.556;6.832;2023-04-15T13:22:22;13.80;91.10
47114;DHT22;32867;51.556;6.832;2023-04-15T13:27:23;13.80;91.00
47114;DHT22;32867;51.556;6.832;2023-04-15T13:32:23;13.80;90.90
47114;DHT22;32867;51.556;6.832;2023-04-15T13:37:26;13.70;91.20
47114;DHT22;32867;51.556;6.832;2023-04-15T13:42:27;13.80;91.10
47114;DHT22;32867;51.556;6.832;2023-04-15T13:47:28;13.80;91.40
47114;DHT22;32867;51.556;6.832;2023-04-15T13:52:28;13.80;91.30
47114;DHT22;32867;51.556;6.832;2023-04-15T13:57:30;13.60;91.70
47114;DHT22;32867;51.556;6.832;2023-04-15T14:02:31;13.70;91.60
47114;DHT22;32867;51.556;6.832;2023-04-15T14:07:31;13.50;92.10
47114;DHT22;32867;51.556;6.832;2023-04-15T14:12:32;13.30;92.10
47114;DHT22;32867;51.556;6.832;2023-04-15T14:17:33;13.40;92.20
47114;DHT22;32867;51.556;6.832;2023-04-15T14:22:33;13.60;92.30
47114;DHT22;32867;51.556;6.832;2023-04-15T14:27:34;13.70;92.30
47114;DHT22;32867;51.556;6.832;2023-04-15T14:32:35;13.50;93.10
47114;DHT22;32867;51.556;6.832;2023-04-15T14:37:35;13.50;93.30
47114;DHT22;32867;51.556;6.832;2023-04-15T14:42:36;13.40;93.30
47114;DHT22;32867;51.556;6.832;2023-04-15T14:47:37;13.40;93.90
47114;DHT22;32867;51.556;6.832;2023-04-15T14:52:37;13.20;94.50
47114;DHT22;32867;51.556;6.832;2023-04-15T14:57:39;13.10;94.90
47114;DHT22;32867;51.556;6.832;2023-04-15T15:02:40;13.20;95.50
47114;DHT22;32867;51.556;6.832;2023-04-15T15:07:41;13.30;96.20
47114;DHT22;32867;51.556;6.832;2023-04-15T15:12:42;13.40;96.20
47114;DHT22;32867;51.556;6.832;2023-04-15T15:17:42;13.40;95.90
47114;DHT22;32867;51.556;6.832;2023-04-15T15:22:43;13.40;95.90
47114;DHT22;32867;51.556;6.832;2023-04-15T15:27:44;13.30;96.10
47114;DHT22;32867;51.556;6.832;2023-04-15T15:39:07;13.20;96.80
47114;DHT22;32867;51.556;6.832;2023-04-15T15:44:08;13.10;96.90
47114;DHT22;32867;51.556;6.832;2023-04-15T15:49:09;12.90;97.60
47114;DHT22;32867;51.556;6.832;2023-04-15T15:54:10;12.90;98.20
47114;DHT22;32867;51.556;6.832;2023-04-15T15:59:10;12.70;98.70
47114;DHT22;32867;51.556;6.832;2023-04-15T16:04:11;12.70;99.60
47114;DHT22;32867;51.556;6.832;2023-04-15T16:09:12;12.60;99.70
47114;DHT22;32867;51.556;6.832;2023-04-15T16:14:13;12.50;99.70
47114;DHT22;32867;51.556;6.832;2023-04-15T16:19:14;12.50;99.80
47114;DHT22;32867;51.556;6.832;2023-04-15T16:24:14;12.40;99.90
47114;DHT22;32867;51.556;6.832;2023-04-15T16:29:15;12.40;99.90
47114;DHT22;32867;51.556;6.832;2023-04-15T16:34:15;12.40;99.90
47114;DHT22;32867;51.556;6.832;2023-04-15T16:39:16;12.40;99.90
47114;DHT22;32867;51.556;6.832;2023-04-15T16:44:19;12.20;99.90
47114;DHT22;32867;51.556;6.832;2023-04-15T16:49:19;12.10;99.90
47114;DHT22;32867;51.556;6.832;2023-04-15T16:54:20;12.00;99.90
47114;DHT22;32867;51.556;6.832;2023-04-15T16:59:21;12.00;99.90
47114;DHT22;32867;51.556;6.832;2023-04-15T17:04:21;11.80;99.90
47114;DHT22;32867;51.556;6.832;2023-04-15T17:09:22;11.80;99.90
47114;DHT22;32867;51.556;6.832;2023-04-15T17:14:23;11.80;99.90
47114;DHT22;32867;51.556;6.832;2023-04-15T17:19:23;11.80;99.90
47114;DHT22;32867;51.556;6.832;2023-04-15T17:24:24;11.80;99.90
47114;DHT22;32867;51.556;6.832;2023-04-15T17:29:24;11.80;99.90
47114;DHT22;32867;51.556;6.832;2023-04-15T17:34:27;11.80;99.90
47114;DHT22;32867;51.556;6.832;2023-04-15T17:39:28;11.70;99.90
47114;DHT22;32867;51.556;6.832;2023-04-15T17:44:28;11.70;99.90
47114;DHT22;32867;51.556;6.832;2023-04-15T17:49:29;11.60;99.90
47114;DHT22;32867;51.556;6.832;2023-04-15T17:54:30;11.50;99.90
47114;DHT22;32867;51.556;6.832;2023-04-15T17:59:31;11.50;99.90
47114;DHT22;32867;51.556;6.832;2023-04-15T18:04:33;11.50;99.90
47114;DHT22;32867;51.556;6.832;2023-04-15T18:09:33;11.30;99.90
47114;DHT22;32867;51.556;6.832;2023-04-15T18:14:35;11.30;99.90
47114;DHT22;32867;51.556;6.832;2023-04-15T18:19:35;11.40;99.90
47114;DHT22;32867;51.556;6.832;2023-04-15T18:24:36;11.40;99.90
47114;DHT22;32867;51.556;6.832;2023-04-15T18:29:37;11.40;99.90
47114;DHT22;32867;51.556;6.832;2023-04-15T18:34:38;11.50;99.90
47114;DHT22;32867;51.556;6.832;2023-04-15T18:39:39;11.40;99.90
47114;DHT22;32867;51.556;6.832;2023-04-15T18:44:39;11.30;99.90
47114;DHT22;32867;51.556;6.832;2023-04-15T18:49:40;11.30;99.90
47114;DHT22;32867;51.556;6.832;2023-04-15T18:54:41;11.10;99.90
47114;DHT22;32867;51.556;6.832;2023-04-15T18:59:41;11.00;99.90
47114;DHT22;32867;51.556;6.832;2023-04-15T19:04:42;10.80;99.90
47114;DHT22;32867;51.556;6.832;2023-04-15T19:09:43;10.70;99.90
47114;DHT22;32867;51.556;6.832;2023-04-15T19:14:43;10.90;99.90
47114;DHT22;32867;51.556;6.832;2023-04-15T19:19:44;10.90;99.90
47114;DHT22;32867;51.556;6.832;2023-04-15T19:24:45;11.00;99.90
47114;DHT22;32867;51.556;6.832;2023-04-15T19:29:46;11.00;99.90
47114;DHT22;32867;51.556;6.832;2023-04-15T19:34:47;11.00;99.90
47114;DHT22;32867;51.556;6.832;2023-04-15T19:39:47;11.00;99.90
47114;DHT22;32867;51.556;6.832;2023-04-15T19:44:48;10.90;99.90
47114;DHT22;32867;51.556;6.832;2023-04-15T19:49:50;10.90;99.90
47114;DHT22;32867;51.556;6.832;2023-04-15T19:54:50;10.90;99.90
47114;DHT22;32867;51.556;6.832;2023-04-15T19:59:51;10.90;99.90
47114;DHT22;32867;51.556;6.832;2023-04-15T20:04:52;10.80;99.90
47114;DHT22;32867;51.556;6.832;2023-04-15T20:09:52;10.70;99.90
47114;DHT22;32867;51.556;6.832;2023-04-15T20:14:53;10.60;99.90
47114;DHT22;32867;51.556;6.832;2023-04-15T20:19:54;10.70;99.90
47114;DHT22;32867;51.556;6.832;2023-04-15T20:24:54;10.70;99.90
47114;DHT22;32867;51.556;6.832;2023-04-15T20:29:55;10.60;99.90
47114;DHT22;32867;51.556;6.832;2023-04-15T20:34:55;10.70;99.90
47114;DHT22;32867;51.556;6.832;2023-04-15T20:39:56;10.70;99.90
47114;DHT22;32867;51.556;6.832;2023-04-15T20:44:57;10.70;99.90
47114;DHT22;32867;51.556;6.832;2023-04-15T20:49:57;10.60;99.90
47114;DHT22;32867;51.556;6.832;2023-04-15T20:54:58;10.60;99.90
47114;DHT22;32867;51.556;6.832;2023-04-15T20:59:59;10.50;99.90
47114;DHT22;32867;51.556;6.832;2023-04-15T21:04:59;10.30;99.90
47114;DHT22;32867;51.556;6.832;2023-04-15T21:10:00;10.40;99.90
47114;DHT22;32867;51.556;6.832;2023-04-15T21:15:01;10.40;99.90
47114;DHT22;32867;51.556;6.832;2023-04-15T21:20:01;10.40;99.90
47114;DHT22;32867;51.556;6.832;2023-04-15T21:25:02;10.50;99.90
47114;DHT22;32867;51.556;6.832;2023-04-15T21:30:04;10.40;99.90
47114;DHT22;32867;51.556;6.832;2023-04-15T21:35:05;10.40;99.90
47114;DHT22;32867;51.556;6.832;2023-04-15T21:40:06;10.50;99.90
47114;DHT22;32867;51.556;6.832;2023-04-15T21:45:07;10.60;99.90
47114;DHT22;32867;51.556;6.832;2023-04-15T21:50:09;10.60;99.90
47114;DHT22;32867;51.556;6.832;2023-04-15T21:55:09;10.50;99.90
47114;DHT22;32867;51.556;6.832;2023-04-15T22:00:10;10.50;99.90
47114;DHT22;32867;51.556;6.832;2023-04-15T22:05:11;10.60;99.90
47114;DHT22;32867;51.556;6.832;2023-04-15T22:10:12;10.60;99.90
47114;DHT22;32867;51.556;6.832;2023-04-15T22:15:13;10.60;99.90
47114;DHT22;32867;51.556;6.832;2023-04-15T22:20:14;10.60;99.90
47114;DHT22;32867;51.556;6.832;2023-04-15T22:25:14;10.70;99.90
47114;DHT22;32867;51.556;6.832;2023-04-15T22:30:15;10.70;99.90
47114;DHT22;32867;51.556;6.832;2023-04-15T22:35:16;10.60;99.90
47114;DHT22;32867;51.556;6.832;2023-04-15T22:40:17;10.60;99.90
47114;DHT22;32867;51.556;6.832;2023-04-15T22:45:18;10.60;99.90
47114;DHT22;32867;51.556;6.832;2023-04-15T22:50:18;10.40;99.90
47114;DHT22;32867;51.556;6.832;2023-04-15T22:55:19;10.40;99.90
47114;DHT22;32867;51.556;6.832;2023-04-15T23:00:20;10.50;99.90
47114;DHT22;32867;51.556;6.832;2023-04-15T23:05:20;10.60;99.90
47114;DHT22;32867;51.556;6.832;2023-04-15T23:10:21;10.50;99.90
47114;DHT22;32867;51.556;6.832;2023-04-15T23:15:22;10.50;99.90
47114;DHT22;32867;51.556;6.832;2023-04-15T23:20:23;10.50;99.90
47114;DHT22;32867;51.556;6.832;2023-04-15T23:25:23;10.50;99.90
47114;DHT22;32867;51.556;6.832;2023-04-15T23:30:24;10.50;99.90
47114;DHT22;32867;51.556;6.832;2023-04-15T23:35:25;10.50;99.90
47114;DHT22;32867;51.556;6.832;2023-04-15T23:40:26;10.50;99.90
47114;DHT22;32867;51.556;6.832;2023-04-15T23:45:27;10.50;99.90
47114;DHT22;32867;51.556;6.832;2023-04-15T23:50:28;10.50;99.90
47114;DHT22;32867;51.556;6.832;2023-04-15T23:55:29;10.60;99.90
